METAR Data
IDs: Format: Raw Decoded Include TAF

Data at: 0201 UTC 01 Mar 2021

SBPA 010100Z 11016KT 9999 SCT048 24/21 Q1015